createdAt,value
2023-08-06T00:02:14.782Z,15.69
2023-08-06T00:12:17.590Z,15.82
2023-08-06T00:22:22.003Z,15.80
2023-08-06T00:32:25.094Z,15.86
2023-08-06T00:42:29.982Z,15.92
2023-08-06T00:52:33.186Z,15.93
2023-08-06T01:02:37.884Z,15.85
2023-08-06T01:12:48.239Z,15.70
2023-08-06T01:22:52.614Z,15.85
2023-08-06T01:33:01.180Z,15.83
2023-08-06T01:43:05.719Z,15.76
2023-08-06T01:53:08.739Z,15.69
2023-08-06T02:03:13.109Z,15.57
2023-08-06T02:13:17.142Z,15.56
2023-08-06T02:23:21.671Z,15.56
2023-08-06T02:33:24.670Z,15.57
2023-08-06T02:43:29.012Z,15.70
2023-08-06T02:53:32.752Z,15.59
2023-08-06T03:03:40.881Z,15.72
2023-08-06T03:13:44.953Z,15.78
2023-08-06T03:23:50.699Z,15.74
2023-08-06T03:33:57.574Z,15.74
2023-08-06T03:44:05.144Z,15.73
2023-08-06T03:54:08.543Z,15.72
2023-08-06T04:04:13.977Z,15.57
2023-08-06T04:14:17.076Z,15.66
2023-08-06T04:24:21.570Z,15.63
2023-08-06T04:34:24.514Z,15.66
2023-08-06T04:44:29.819Z,15.80
2023-08-06T04:54:32.783Z,15.80
2023-08-06T05:04:37.211Z,16.05
2023-08-06T05:14:39.990Z,16.13
2023-08-06T05:24:44.379Z,16.39
2023-08-06T05:34:47.364Z,16.65
2023-08-06T05:44:51.713Z,17.00
2023-08-06T05:54:54.566Z,17.07
2023-08-06T06:04:58.948Z,17.10
2023-08-06T06:15:02.208Z,17.04
2023-08-06T06:25:07.941Z,16.92
2023-08-06T06:35:11.363Z,16.60
2023-08-06T06:45:16.007Z,16.25
2023-08-06T06:55:19.011Z,15.47
2023-08-06T07:05:23.405Z,15.09
2023-08-06T07:15:26.453Z,14.86
2023-08-06T07:25:30.937Z,14.71
2023-08-06T07:35:34.039Z,14.74
2023-08-06T07:45:38.663Z,14.72
2023-08-06T07:55:41.914Z,14.83
2023-08-06T08:05:47.588Z,14.92
2023-08-06T08:15:50.624Z,15.04
2023-08-06T08:25:55.043Z,14.96
2023-08-06T08:35:58.078Z,14.88
2023-08-06T08:46:06.326Z,14.89
2023-08-06T08:56:09.399Z,14.98
2023-08-06T09:06:15.014Z,14.97
2023-08-06T09:16:18.126Z,14.97
2023-08-06T09:26:22.911Z,15.01
2023-08-06T09:36:27.077Z,15.16
2023-08-06T09:46:34.542Z,15.20
2023-08-06T09:56:38.917Z,15.28
2023-08-06T10:06:44.081Z,15.33
2023-08-06T10:16:47.852Z,15.43
2023-08-06T10:26:52.231Z,15.39
2023-08-06T10:36:57.672Z,15.40
2023-08-06T10:47:28.474Z,15.64
2023-08-06T10:57:31.497Z,15.84
2023-08-06T11:07:36.076Z,15.86
2023-08-06T11:17:39.363Z,15.98
2023-08-06T11:27:43.855Z,16.01
2023-08-06T11:37:47.247Z,16.18
2023-08-06T11:47:54.538Z,16.36
2023-08-06T11:57:57.973Z,16.52
2023-08-06T12:08:04.596Z,16.85
2023-08-06T12:18:09.396Z,17.04
2023-08-06T12:28:15.920Z,17.03
2023-08-06T12:38:21.377Z,17.26
2023-08-06T12:48:31.173Z,17.34
2023-08-06T12:58:49.180Z,17.35
2023-08-06T13:08:54.292Z,17.27
2023-08-06T13:18:57.750Z,17.50
2023-08-06T13:29:08.781Z,17.12
2023-08-06T13:49:47.088Z,15.64
2023-08-06T13:59:53.328Z,16.28
2023-08-06T14:10:03.710Z,17.03
2023-08-06T14:20:13.120Z,16.93
2023-08-06T14:30:20.239Z,16.69
2023-08-06T14:40:29.479Z,16.62
2023-08-06T14:50:36.963Z,16.89
2023-08-06T15:00:43.968Z,16.42
2023-08-06T15:10:54.015Z,15.94
2023-08-06T15:21:01.212Z,15.59
2023-08-06T15:31:11.709Z,15.31
2023-08-06T15:41:18.131Z,15.26
2023-08-06T15:51:31.589Z,15.48
2023-08-06T16:01:34.634Z,15.09
2023-08-06T16:11:42.073Z,15.03
2023-08-06T16:21:57.743Z,14.90
2023-08-06T16:32:08.257Z,14.85
2023-08-06T16:42:11.241Z,14.71
2023-08-06T16:52:15.725Z,14.47
2023-08-06T17:02:24.786Z,14.27
2023-08-06T17:12:31.292Z,14.33
2023-08-06T17:22:43.912Z,14.43
2023-08-06T17:32:49.212Z,14.35
2023-08-06T17:42:55.250Z,14.46
2023-08-06T17:53:01.920Z,14.52
2023-08-06T18:03:12.625Z,14.51
2023-08-06T18:13:18.137Z,14.46
2023-08-06T18:23:29.988Z,14.35
2023-08-06T18:33:35.177Z,14.32
2023-08-06T18:43:41.729Z,14.26
2023-08-06T18:53:55.653Z,14.30
2023-08-06T19:03:58.751Z,14.35
2023-08-06T19:14:03.206Z,14.41
2023-08-06T19:24:06.561Z,14.32
2023-08-06T19:34:11.097Z,14.01
2023-08-06T19:44:14.215Z,13.82
2023-08-06T19:54:19.223Z,13.77
2023-08-06T20:04:22.284Z,13.63
2023-08-06T20:14:26.740Z,13.71
2023-08-06T20:24:29.832Z,13.75
2023-08-06T20:34:34.349Z,13.71
2023-08-06T20:44:38.297Z,13.68
2023-08-06T20:54:42.631Z,13.64
2023-08-06T21:04:45.742Z,13.74
2023-08-06T21:14:50.132Z,13.69
2023-08-06T21:24:53.224Z,13.64
2023-08-06T21:34:58.014Z,13.75
2023-08-06T21:45:02.980Z,13.67
2023-08-06T21:55:08.211Z,13.50
2023-08-06T22:05:11.443Z,13.49
2023-08-06T22:15:15.980Z,13.42
2023-08-06T22:25:19.331Z,13.50
2023-08-06T22:35:23.903Z,13.47
2023-08-06T22:45:26.912Z,13.34
2023-08-06T22:56:01.567Z,13.26
2023-08-06T23:05:54.266Z,13.22
2023-08-06T23:15:58.752Z,13.33
2023-08-06T23:26:01.786Z,13.37
2023-08-06T23:36:06.512Z,13.42
2023-08-06T23:46:09.595Z,13.52
2023-08-06T23:56:13.956Z,13.50
